x

Cape Elizabeth- 45nm Nw Of Aberdeen, Wa (46041) Wave Buoy

5:50pm - Tue 23rd Aug 2016 All times are PDT. -7 hours from GMT.

  • Sig Wave height 3.0ft
  • Swell Direction
  • Peak Period 7s
  • Average Period 5s
  • Wind
    9mph, 11mph gusts
  • Sea Temp 58°f
  • Air Temp 59°f
  • Sea Pressure 1022.3mb
  • Cape Elizabeth- 45nm Nw Of Aberdeen, Wa
  • Cape Elizabeth- 45nm Nw Of Aberdeen, Wa

More Historic Weather Station data

Upgrade to MSW Pro to gain access to the past 30 days of data for over 8000 Wavebouys and Weather Stations around the globe.

Join Pro

Comparision Forecast

View Surf forecast
   
Tue 08/23 5:50pm 3ft 7s 5s 9 11 mph 1022.3mb 58f 59f
4:50pm 3.5ft 7s 6s 11 13 mph 1022.5mb 59f 59f
3:50pm 3.5ft 6s 6s 7
mph
1022.8mb 59f 57f
2:50pm 3.5ft 7s 6s 4
mph
1023.1mb 58f 55f
1:50pm 3ft 7s 5s 4
mph
1023.4mb 58f 54f
12:50pm 3.5ft 8s 6s 7 9 mph 1023.6mb 58f 54f
11:50am 3.5ft 15s 6s 4 7 mph 1023.6mb 57f 52f
10:50am 3.5ft 6s 6s 4 7 mph 1023.6mb 57f 51f
9:50am 3.5ft 7s 6s 2 4 mph 1023.1mb 57f 51f
8:50am 3.5ft 7s 6s 2 4 mph 1022.8mb 57f 51f
7:50am 3.5ft 8s 6s 2 4 mph 1022.2mb 57f 51f
6:50am 3.5ft 8s 6s 4 7 mph 1021.7mb 57f 51f
5:50am 3.5ft 8s 6s 4 7 mph 1021.3mb 57f 52f
4:50am 3.5ft 8s 6s 4 7 mph 1020.9mb 57f 53f
3:50am 3.5ft 8s 6s 4 9 mph 1020.8mb 57f 53f
2:50am 4ft 8s 6s 9 11 mph 1020.6mb 57f 54f
1:50am 4ft 8s 6s 9 11 mph 1020.6mb 57f 54f
12:50am 4.5ft 8s 6s 9 11 mph 1020.6mb 56f 55f
Mon 08/22 11:50pm 4ft 8s 6s 9 11 mph 1020.7mb 56f 55f
10:50pm 4.5ft 8s 6s 11 13 mph 1020.7mb 56f 55f
9:50pm 4ft 8s 6s 11 13 mph 1020.6mb 56f 56f
8:50pm 4ft 7s 6s 9 11 mph 1020.2mb 57f 56f
7:50pm 4ft 8s 6s 9
mph
1019.9mb 56f 57f
6:50pm 3.5ft 8s 6s 9 11 mph 1019.8mb 56f 57f
5:50pm 4ft 8s 6s 9 11 mph 1019.8mb 57f 58f
4:50pm 4ft 8s 6s 9 11 mph 1019.6mb 57f 57f
3:50pm 4.5ft 8s 6s 9 11 mph 1019.8mb 57f 57f
2:50pm 4.5ft 7s 6s 11
mph
1019.9mb 57f 57f
1:50pm 4.5ft 8s 6s 7 9 mph 1019.7mb 57f 58f
12:50pm 4.5ft 8s 6s 7 9 mph 1020.1mb 56f 58f
11:50am 5ft 7s 6s 4 7 mph 1020.1mb 56f 57f
10:50am 5ft 7s 6s 9 11 mph 1019.9mb 56f 57f
9:50am 5ft 7s 6s 7 9 mph 1019.5mb 55f 57f
8:50am 5.5ft 7s 6s 11 18 mph 1019mb 55f 57f
7:50am 5ft 7s 6s 16 20 mph 1018.4mb 55f 57f
6:50am 5ft 8s 6s 13
mph
1018mb 55f 57f
5:50am 5ft 8s 6s 11 16 mph 1017.7mb 56f 57f
4:50am 4.5ft 8s 6s 11 16 mph 1017.5mb 56f 57f
3:50am 5ft 7s 6s 11
mph
1017.3mb 56f 57f
2:50am 5ft 8s 6s 9 11 mph 1017.3mb 56f 57f
1:50am 5ft 7s 6s 9 11 mph 1017.1mb 56f 57f
12:50am 5ft 7s 6s 9 11 mph 1017.3mb 56f 57f
Sun 08/21 11:50pm 5.5ft 7s 6s 13 16 mph 1017.3mb 56f 57f
10:50pm 5ft 7s 6s 9 13 mph 1017.6mb 56f 58f
9:50pm 5.5ft 8s 6s 11
mph
1017.1mb 56f 57f
7:50pm 5ft 7s 6s 7 11 mph 1016.4mb 56f 57f
6:50pm 5ft 7s 6s 4 7 mph 1016mb 56f 57f
5:50pm 5ft 7s 6s 7 9 mph 1016.2mb 56f 58f
4:50pm 5.5ft 8s 6s 9 11 mph 1015.9mb 56f 57f
3:50pm 5ft 8s 6s 9 11 mph 1015.9mb 56f 57f
2:50pm 5.5ft 8s 6s 9 11 mph 1015.7mb 55f 57f
1:50pm 5.5ft 8s 6s 11 16 mph 1015.6mb 55f 58f
12:50pm 6ft 8s 6s 7 9 mph 1015.5mb 55f 57f
11:50am 6ft 8s 6s 4 7 mph 1015.3mb 55f 56f
10:50am 7ft 8s 7s 4 7 mph 1014.8mb 55f 56f
9:50am 7ft 8s 6s 7 9 mph 1014.3mb 55f 55f
8:50am 7.5ft 8s 6s 11 13 mph 1013.8mb 55f 55f
7:50am 7ft 8s 7s 13 16 mph 1013.5mb 55f 56f
6:50am 7.5ft 9s 7s 7
mph
1013mb 55f 55f
5:50am 7ft 8s 7s 16 18 mph 1012.6mb 55f 56f
4:50am 7ft 9s 7s 13 16 mph 1012.2mb 55f 56f
3:50am 7ft 8s 6s 13 16 mph 1012mb 55f 56f
2:50am 6.5ft 8s 6s 18 20 mph 1011.9mb 55f 56f
1:50am 7ft 9s 6s 16 20 mph 1011.8mb 56f 56f
12:50am 6.5ft 8s 6s 13 18 mph 1011.9mb 56f 56f
Sat 08/20 11:50pm 6ft 9s 6s 16 18 mph 1011.9mb 56f 56f
10:50pm 6.5ft 9s 7s 13 16 mph 1011.7mb 56f 57f
9:50pm 7ft 8s 7s 9 13 mph 1011.7mb 56f 57f
8:50pm 6.5ft 9s 7s 11 13 mph 1011.7mb 56f 57f
7:50pm 6.5ft 10s 7s 13 16 mph 1011.5mb 56f 56f
6:50pm 6.5ft 9s 7s 11 16 mph 1011.6mb 56f 58f
5:50pm 6ft 9s 7s 11 13 mph 1011.9mb 58f 58f
4:50pm 7ft 8s 7s 4 7 mph 1012.1mb 58f 59f
3:50pm 7ft 8s 7s 4 7 mph 1012.4mb 60f 60f
2:50pm 6ft 8s 7s 4 7 mph 1012.8mb 59f 60f
1:50pm 6ft 8s 7s 2 4 mph 1013mb 57f 60f
12:50pm 6ft 8s 7s 4
mph
1013.2mb 57f 59f
11:50am 6.5ft 8s 7s 2 4 mph 1013.1mb 56f 59f
10:50am 6.5ft 9s 7s 2 4 mph 1013.3mb 55f 57f
9:50am 7ft 9s 7s 2 4 mph 1013.1mb 54f 57f
8:50am 6ft 9s 7s 4 7 mph 1013mb 54f 56f
7:50am 6.5ft 10s 7s 4 7 mph 1013mb 55f 56f
6:50am 6ft 9s 7s 4
mph
1012.8mb 56f 56f
5:50am 6ft 9s 7s 7
mph
1012.6mb 56f 56f
4:50am 6ft 9s 7s 7
mph
1012.5mb 55f 56f
3:50am 6ft 9s 7s 9 11 mph 1012.7mb 56f 56f
2:50am 6ft 11s 7s 9
mph
1012.8mb 55f 56f